sensor_id;sensor_type;location;lat;lon;timestamp;P1;durP1;ratioP1;P2;durP2;ratioP2
21806;SDS011;11065;50.786;7.840;2023-06-22T00:01:26;9.00;;;6.90;;
21806;SDS011;11065;50.786;7.840;2023-06-22T00:03:54;9.47;;;6.47;;
21806;SDS011;11065;50.786;7.840;2023-06-22T00:06:22;8.30;;;6.30;;
21806;SDS011;11065;50.786;7.840;2023-06-22T00:08:50;7.50;;;6.70;;
21806;SDS011;11065;50.786;7.840;2023-06-22T00:11:18;11.37;;;6.73;;
21806;SDS011;11065;50.786;7.840;2023-06-22T00:13:48;8.27;;;6.83;;
21806;SDS011;11065;50.786;7.840;2023-06-22T00:16:17;9.83;;;6.47;;
21806;SDS011;11065;50.786;7.840;2023-06-22T00:18:45;7.90;;;6.77;;
21806;SDS011;11065;50.786;7.840;2023-06-22T00:21:13;9.53;;;7.63;;
21806;SDS011;11065;50.786;7.840;2023-06-22T00:23:42;9.03;;;6.70;;
21806;SDS011;11065;50.786;7.840;2023-06-22T00:26:10;8.33;;;7.53;;
21806;SDS011;11065;50.786;7.840;2023-06-22T00:28:38;9.87;;;7.63;;
21806;SDS011;11065;50.786;7.840;2023-06-22T00:31:08;8.83;;;7.93;;
21806;SDS011;11065;50.786;7.840;2023-06-22T00:33:36;8.83;;;7.93;;
21806;SDS011;11065;50.786;7.840;2023-06-22T00:36:04;8.97;;;7.77;;
21806;SDS011;11065;50.786;7.840;2023-06-22T00:38:34;9.67;;;7.97;;
21806;SDS011;11065;50.786;7.840;2023-06-22T00:41:07;8.70;;;7.80;;
21806;SDS011;11065;50.786;7.840;2023-06-22T00:43:35;8.20;;;7.50;;
21806;SDS011;11065;50.786;7.840;2023-06-22T00:46:03;7.90;;;6.83;;
21806;SDS011;11065;50.786;7.840;2023-06-22T00:48:33;9.93;;;6.83;;
21806;SDS011;11065;50.786;7.840;2023-06-22T00:51:03;8.67;;;7.40;;
21806;SDS011;11065;50.786;7.840;2023-06-22T00:53:31;8.20;;;7.40;;
21806;SDS011;11065;50.786;7.840;2023-06-22T00:56:01;9.20;;;8.27;;
21806;SDS011;11065;50.786;7.840;2023-06-22T00:58:30;10.47;;;8.10;;
21806;SDS011;11065;50.786;7.840;2023-06-22T01:00:59;9.67;;;8.40;;
21806;SDS011;11065;50.786;7.840;2023-06-22T01:03:27;12.10;;;8.77;;
21806;SDS011;11065;50.786;7.840;2023-06-22T01:05:59;9.57;;;7.73;;
21806;SDS011;11065;50.786;7.840;2023-06-22T01:08:39;9.90;;;8.20;;
21806;SDS011;11065;50.786;7.840;2023-06-22T01:11:15;10.43;;;7.77;;
21806;SDS011;11065;50.786;7.840;2023-06-22T01:13:49;8.47;;;7.57;;
21806;SDS011;11065;50.786;7.840;2023-06-22T01:16:23;9.90;;;7.90;;
21806;SDS011;11065;50.786;7.840;2023-06-22T01:18:54;12.00;;;7.87;;
21806;SDS011;11065;50.786;7.840;2023-06-22T01:21:28;8.30;;;7.47;;
21806;SDS011;11065;50.786;7.840;2023-06-22T01:24:01;8.67;;;7.30;;
21806;SDS011;11065;50.786;7.840;2023-06-22T01:26:47;9.70;;;7.37;;
21806;SDS011;11065;50.786;7.840;2023-06-22T01:29:25;8.33;;;7.43;;
21806;SDS011;11065;50.786;7.840;2023-06-22T01:31:55;8.30;;;7.50;;
21806;SDS011;11065;50.786;7.840;2023-06-22T01:34:27;8.03;;;7.23;;
21806;SDS011;11065;50.786;7.840;2023-06-22T01:36:58;9.70;;;7.77;;
21806;SDS011;11065;50.786;7.840;2023-06-22T01:39:28;10.63;;;8.13;;
21806;SDS011;11065;50.786;7.840;2023-06-22T01:41:57;9.53;;;8.00;;
21806;SDS011;11065;50.786;7.840;2023-06-22T01:44:28;8.40;;;7.57;;
21806;SDS011;11065;50.786;7.840;2023-06-22T01:46:56;9.10;;;8.10;;
21806;SDS011;11065;50.786;7.840;2023-06-22T01:49:25;10.17;;;8.13;;
21806;SDS011;11065;50.786;7.840;2023-06-22T01:51:53;10.00;;;8.13;;
21806;SDS011;11065;50.786;7.840;2023-06-22T01:54:21;12.93;;;7.87;;
21806;SDS011;11065;50.786;7.840;2023-06-22T01:56:49;8.87;;;7.97;;
21806;SDS011;11065;50.786;7.840;2023-06-22T01:59:20;9.60;;;8.03;;
21806;SDS011;11065;50.786;7.840;2023-06-22T02:02:02;8.93;;;8.03;;
21806;SDS011;11065;50.786;7.840;2023-06-22T02:04:36;9.43;;;8.33;;
21806;SDS011;11065;50.786;7.840;2023-06-22T02:07:12;9.27;;;8.37;;
21806;SDS011;11065;50.786;7.840;2023-06-22T02:09:43;10.70;;;8.30;;
21806;SDS011;11065;50.786;7.840;2023-06-22T02:12:15;9.40;;;8.40;;
21806;SDS011;11065;50.786;7.840;2023-06-22T02:14:46;11.50;;;8.77;;
21806;SDS011;11065;50.786;7.840;2023-06-22T02:17:17;8.87;;;7.90;;
21806;SDS011;11065;50.786;7.840;2023-06-22T02:19:45;9.67;;;8.67;;
21806;SDS011;11065;50.786;7.840;2023-06-22T02:22:13;8.70;;;7.77;;
21806;SDS011;11065;50.786;7.840;2023-06-22T02:24:43;9.33;;;7.80;;
21806;SDS011;11065;50.786;7.840;2023-06-22T02:27:11;10.03;;;8.70;;
21806;SDS011;11065;50.786;7.840;2023-06-22T02:29:39;10.43;;;9.13;;
21806;SDS011;11065;50.786;7.840;2023-06-22T02:32:08;12.17;;;9.37;;
21806;SDS011;11065;50.786;7.840;2023-06-22T02:34:39;10.20;;;9.07;;
21806;SDS011;11065;50.786;7.840;2023-06-22T02:37:09;12.47;;;10.47;;
21806;SDS011;11065;50.786;7.840;2023-06-22T02:39:39;12.70;;;9.83;;
21806;SDS011;11065;50.786;7.840;2023-06-22T02:42:07;12.07;;;9.67;;
21806;SDS011;11065;50.786;7.840;2023-06-22T02:44:37;15.57;;;10.00;;
21806;SDS011;11065;50.786;7.840;2023-06-22T02:47:05;10.83;;;9.73;;
21806;SDS011;11065;50.786;7.840;2023-06-22T02:49:33;11.40;;;10.10;;
21806;SDS011;11065;50.786;7.840;2023-06-22T02:52:03;12.13;;;10.10;;
21806;SDS011;11065;50.786;7.840;2023-06-22T02:54:31;11.30;;;9.77;;
21806;SDS011;11065;50.786;7.840;2023-06-22T02:57:00;11.07;;;9.27;;
21806;SDS011;11065;50.786;7.840;2023-06-22T02:59:29;11.97;;;8.70;;
21806;SDS011;11065;50.786;7.840;2023-06-22T03:02:06;13.87;;;10.53;;
21806;SDS011;11065;50.786;7.840;2023-06-22T03:04:35;11.80;;;10.30;;
21806;SDS011;11065;50.786;7.840;2023-06-22T03:07:04;12.23;;;11.03;;
21806;SDS011;11065;50.786;7.840;2023-06-22T03:09:33;12.27;;;10.77;;
21806;SDS011;11065;50.786;7.840;2023-06-22T03:12:02;12.30;;;11.10;;
21806;SDS011;11065;50.786;7.840;2023-06-22T03:14:39;12.47;;;10.97;;
21806;SDS011;11065;50.786;7.840;2023-06-22T03:17:07;12.03;;;10.43;;
21806;SDS011;11065;50.786;7.840;2023-06-22T03:19:36;12.03;;;10.83;;
21806;SDS011;11065;50.786;7.840;2023-06-22T03:22:05;14.67;;;11.13;;
21806;SDS011;11065;50.786;7.840;2023-06-22T03:24:33;12.10;;;10.70;;
21806;SDS011;11065;50.786;7.840;2023-06-22T03:27:04;11.90;;;10.50;;
21806;SDS011;11065;50.786;7.840;2023-06-22T03:29:33;12.13;;;10.97;;
21806;SDS011;11065;50.786;7.840;2023-06-22T03:32:01;12.93;;;11.60;;
21806;SDS011;11065;50.786;7.840;2023-06-22T03:34:31;11.83;;;10.63;;
21806;SDS011;11065;50.786;7.840;2023-06-22T03:37:00;12.77;;;11.47;;
21806;SDS011;11065;50.786;7.840;2023-06-22T03:39:31;12.80;;;11.37;;
21806;SDS011;11065;50.786;7.840;2023-06-22T03:41:59;12.60;;;10.60;;
21806;SDS011;11065;50.786;7.840;2023-06-22T03:44:27;12.10;;;10.97;;
21806;SDS011;11065;50.786;7.840;2023-06-22T03:46:55;13.00;;;11.33;;
21806;SDS011;11065;50.786;7.840;2023-06-22T03:49:23;12.83;;;10.60;;
21806;SDS011;11065;50.786;7.840;2023-06-22T03:51:51;14.30;;;10.60;;
21806;SDS011;11065;50.786;7.840;2023-06-22T03:54:19;12.87;;;11.33;;
21806;SDS011;11065;50.786;7.840;2023-06-22T03:56:48;13.13;;;11.27;;
21806;SDS011;11065;50.786;7.840;2023-06-22T03:59:16;15.30;;;11.10;;
21806;SDS011;11065;50.786;7.840;2023-06-22T04:01:44;12.23;;;11.03;;
21806;SDS011;11065;50.786;7.840;2023-06-22T04:04:13;12.27;;;10.47;;
21806;SDS011;11065;50.786;7.840;2023-06-22T04:06:41;11.67;;;10.47;;
21806;SDS011;11065;50.786;7.840;2023-06-22T04:09:09;11.33;;;10.20;;
21806;SDS011;11065;50.786;7.840;2023-06-22T04:11:37;10.47;;;9.40;;
21806;SDS011;11065;50.786;7.840;2023-06-22T04:14:07;13.53;;;12.13;;
21806;SDS011;11065;50.786;7.840;2023-06-22T04:16:35;15.33;;;13.43;;
21806;SDS011;11065;50.786;7.840;2023-06-22T04:19:03;13.03;;;11.73;;
21806;SDS011;11065;50.786;7.840;2023-06-22T04:21:31;13.27;;;11.90;;
21806;SDS011;11065;50.786;7.840;2023-06-22T04:23:59;12.90;;;11.47;;
21806;SDS011;11065;50.786;7.840;2023-06-22T04:26:27;12.10;;;10.90;;
21806;SDS011;11065;50.786;7.840;2023-06-22T04:28:55;13.23;;;11.93;;
21806;SDS011;11065;50.786;7.840;2023-06-22T04:31:24;12.53;;;11.23;;
21806;SDS011;11065;50.786;7.840;2023-06-22T04:33:59;12.37;;;11.17;;
21806;SDS011;11065;50.786;7.840;2023-06-22T04:36:33;12.73;;;11.23;;
21806;SDS011;11065;50.786;7.840;2023-06-22T04:39:05;13.30;;;11.90;;
21806;SDS011;11065;50.786;7.840;2023-06-22T04:41:36;22.27;;;20.07;;
21806;SDS011;11065;50.786;7.840;2023-06-22T04:44:09;15.83;;;14.23;;
21806;SDS011;11065;50.786;7.840;2023-06-22T04:46:39;14.97;;;13.37;;
21806;SDS011;11065;50.786;7.840;2023-06-22T04:49:08;13.13;;;11.90;;
21806;SDS011;11065;50.786;7.840;2023-06-22T04:51:38;13.60;;;12.23;;
21806;SDS011;11065;50.786;7.840;2023-06-22T04:54:09;12.80;;;11.47;;
21806;SDS011;11065;50.786;7.840;2023-06-22T04:56:37;13.27;;;11.90;;
21806;SDS011;11065;50.786;7.840;2023-06-22T04:59:07;14.00;;;12.70;;
21806;SDS011;11065;50.786;7.840;2023-06-22T05:01:40;12.43;;;11.13;;
21806;SDS011;11065;50.786;7.840;2023-06-22T05:04:09;12.83;;;11.43;;
21806;SDS011;11065;50.786;7.840;2023-06-22T05:06:37;13.53;;;11.23;;
21806;SDS011;11065;50.786;7.840;2023-06-22T05:09:06;13.07;;;11.80;;
21806;SDS011;11065;50.786;7.840;2023-06-22T05:11:34;13.00;;;10.70;;
21806;SDS011;11065;50.786;7.840;2023-06-22T05:14:02;14.20;;;11.47;;
21806;SDS011;11065;50.786;7.840;2023-06-22T05:16:30;11.90;;;10.50;;
21806;SDS011;11065;50.786;7.840;2023-06-22T05:19:00;12.77;;;11.23;;
21806;SDS011;11065;50.786;7.840;2023-06-22T05:21:29;12.20;;;11.00;;
21806;SDS011;11065;50.786;7.840;2023-06-22T05:23:58;12.27;;;10.97;;
21806;SDS011;11065;50.786;7.840;2023-06-22T05:26:29;12.03;;;10.83;;
21806;SDS011;11065;50.786;7.840;2023-06-22T05:28:58;11.33;;;10.13;;
21806;SDS011;11065;50.786;7.840;2023-06-22T05:31:26;11.50;;;10.30;;
21806;SDS011;11065;50.786;7.840;2023-06-22T05:33:55;11.33;;;10.23;;
21806;SDS011;11065;50.786;7.840;2023-06-22T05:36:25;11.17;;;9.57;;
21806;SDS011;11065;50.786;7.840;2023-06-22T05:38:52;11.40;;;10.17;;
21806;SDS011;11065;50.786;7.840;2023-06-22T05:41:20;13.33;;;10.03;;
21806;SDS011;11065;50.786;7.840;2023-06-22T05:43:48;12.43;;;11.03;;
21806;SDS011;11065;50.786;7.840;2023-06-22T05:46:17;11.57;;;10.40;;
21806;SDS011;11065;50.786;7.840;2023-06-22T05:48:46;10.87;;;9.87;;
21806;SDS011;11065;50.786;7.840;2023-06-22T05:51:14;12.67;;;11.37;;
21806;SDS011;11065;50.786;7.840;2023-06-22T05:53:43;11.77;;;10.50;;
21806;SDS011;11065;50.786;7.840;2023-06-22T05:56:15;11.83;;;10.73;;
21806;SDS011;11065;50.786;7.840;2023-06-22T05:58:43;11.17;;;9.97;;
21806;SDS011;11065;50.786;7.840;2023-06-22T06:01:11;10.93;;;9.83;;
21806;SDS011;11065;50.786;7.840;2023-06-22T06:03:41;12.47;;;11.23;;
21806;SDS011;11065;50.786;7.840;2023-06-22T06:06:10;12.60;;;11.30;;
21806;SDS011;11065;50.786;7.840;2023-06-22T06:08:38;11.90;;;10.80;;
21806;SDS011;11065;50.786;7.840;2023-06-22T06:11:08;11.83;;;10.60;;
21806;SDS011;11065;50.786;7.840;2023-06-22T06:13:36;12.60;;;11.30;;
21806;SDS011;11065;50.786;7.840;2023-06-22T06:16:04;10.73;;;9.73;;
21806;SDS011;11065;50.786;7.840;2023-06-22T06:18:32;11.27;;;10.17;;
21806;SDS011;11065;50.786;7.840;2023-06-22T06:21:00;12.70;;;11.20;;
21806;SDS011;11065;50.786;7.840;2023-06-22T06:23:28;11.73;;;10.57;;
21806;SDS011;11065;50.786;7.840;2023-06-22T06:25:56;12.10;;;10.87;;
21806;SDS011;11065;50.786;7.840;2023-06-22T06:28:25;11.83;;;10.60;;
21806;SDS011;11065;50.786;7.840;2023-06-22T06:30:53;11.77;;;10.67;;
21806;SDS011;11065;50.786;7.840;2023-06-22T06:33:22;12.17;;;10.87;;
21806;SDS011;11065;50.786;7.840;2023-06-22T06:35:51;11.30;;;10.30;;
21806;SDS011;11065;50.786;7.840;2023-06-22T06:38:22;13.07;;;10.40;;
21806;SDS011;11065;50.786;7.840;2023-06-22T06:40:50;10.67;;;9.63;;
21806;SDS011;11065;50.786;7.840;2023-06-22T06:43:18;11.70;;;10.40;;
21806;SDS011;11065;50.786;7.840;2023-06-22T06:45:48;11.13;;;10.07;;
21806;SDS011;11065;50.786;7.840;2023-06-22T06:48:18;10.25;;;9.25;;
21806;SDS011;11065;50.786;7.840;2023-06-22T06:50:46;9.77;;;8.82;;
21806;SDS011;11065;50.786;7.840;2023-06-22T06:53:14;10.05;;;9.05;;
21806;SDS011;11065;50.786;7.840;2023-06-22T06:55:42;10.98;;;9.85;;
21806;SDS011;11065;50.786;7.840;2023-06-22T06:58:12;10.77;;;9.70;;
21806;SDS011;11065;50.786;7.840;2023-06-22T07:00:40;10.20;;;9.23;;
21806;SDS011;11065;50.786;7.840;2023-06-22T07:03:09;10.50;;;9.50;;
21806;SDS011;11065;50.786;7.840;2023-06-22T07:05:37;10.98;;;9.43;;
21806;SDS011;11065;50.786;7.840;2023-06-22T07:08:05;9.68;;;8.75;;
21806;SDS011;11065;50.786;7.840;2023-06-22T07:10:33;10.35;;;9.15;;
21806;SDS011;11065;50.786;7.840;2023-06-22T07:13:01;11.85;;;9.43;;
21806;SDS011;11065;50.786;7.840;2023-06-22T07:15:29;9.70;;;8.80;;
21806;SDS011;11065;50.786;7.840;2023-06-22T07:17:57;9.77;;;8.88;;
21806;SDS011;11065;50.786;7.840;2023-06-22T07:20:27;9.77;;;8.77;;
21806;SDS011;11065;50.786;7.840;2023-06-22T07:22:55;10.65;;;8.85;;
21806;SDS011;11065;50.786;7.840;2023-06-22T07:25:24;12.30;;;8.73;;
21806;SDS011;11065;50.786;7.840;2023-06-22T07:27:59;9.90;;;8.95;;
21806;SDS011;11065;50.786;7.840;2023-06-22T07:30:28;10.02;;;9.02;;
21806;SDS011;11065;50.786;7.840;2023-06-22T07:32:58;14.95;;;9.07;;
21806;SDS011;11065;50.786;7.840;2023-06-22T07:35:31;10.18;;;9.15;;
21806;SDS011;11065;50.786;7.840;2023-06-22T07:37:59;10.52;;;8.73;;
21806;SDS011;11065;50.786;7.840;2023-06-22T07:40:31;9.95;;;8.93;;
21806;SDS011;11065;50.786;7.840;2023-06-22T07:43:00;9.85;;;8.90;;
21806;SDS011;11065;50.786;7.840;2023-06-22T07:45:28;10.13;;;9.02;;
21806;SDS011;11065;50.786;7.840;2023-06-22T07:47:56;10.48;;;9.10;;
21806;SDS011;11065;50.786;7.840;2023-06-22T07:50:24;9.63;;;8.73;;
21806;SDS011;11065;50.786;7.840;2023-06-22T07:52:54;9.38;;;8.45;;
21806;SDS011;11065;50.786;7.840;2023-06-22T07:55:22;9.95;;;8.25;;
21806;SDS011;11065;50.786;7.840;2023-06-22T07:57:50;9.48;;;8.48;;
21806;SDS011;11065;50.786;7.840;2023-06-22T08:00:19;10.43;;;9.38;;
21806;SDS011;11065;50.786;7.840;2023-06-22T08:02:48;12.90;;;8.45;;
21806;SDS011;11065;50.786;7.840;2023-06-22T08:05:16;9.38;;;8.38;;
21806;SDS011;11065;50.786;7.840;2023-06-22T08:07:48;10.43;;;9.05;;
21806;SDS011;11065;50.786;7.840;2023-06-22T08:10:18;10.15;;;9.25;;
21806;SDS011;11065;50.786;7.840;2023-06-22T08:12:46;9.55;;;8.57;;
21806;SDS011;11065;50.786;7.840;2023-06-22T08:15:15;9.55;;;8.65;;
21806;SDS011;11065;50.786;7.840;2023-06-22T08:17:43;9.43;;;8.52;;
21806;SDS011;11065;50.786;7.840;2023-06-22T08:20:12;8.45;;;7.57;;
21806;SDS011;11065;50.786;7.840;2023-06-22T08:22:41;8.60;;;7.80;;
21806;SDS011;11065;50.786;7.840;2023-06-22T08:25:09;8.90;;;8.00;;
21806;SDS011;11065;50.786;7.840;2023-06-22T08:27:40;9.80;;;8.40;;
21806;SDS011;11065;50.786;7.840;2023-06-22T08:30:12;10.35;;;8.80;;
21806;SDS011;11065;50.786;7.840;2023-06-22T08:32:40;9.23;;;8.27;;
21806;SDS011;11065;50.786;7.840;2023-06-22T08:35:09;9.27;;;8.27;;
21806;SDS011;11065;50.786;7.840;2023-06-22T08:37:37;9.13;;;8.20;;
21806;SDS011;11065;50.786;7.840;2023-06-22T08:40:07;13.43;;;8.07;;
21806;SDS011;11065;50.786;7.840;2023-06-22T08:42:37;10.02;;;8.20;;
21806;SDS011;11065;50.786;7.840;2023-06-22T08:45:10;8.70;;;7.68;;
21806;SDS011;11065;50.786;7.840;2023-06-22T08:47:38;8.30;;;7.50;;
21806;SDS011;11065;50.786;7.840;2023-06-22T08:50:08;12.93;;;8.57;;
21806;SDS011;11065;50.786;7.840;2023-06-22T08:52:36;8.30;;;7.32;;
21806;SDS011;11065;50.786;7.840;2023-06-22T08:55:07;9.80;;;7.97;;
21806;SDS011;11065;50.786;7.840;2023-06-22T08:57:36;9.00;;;8.00;;
21806;SDS011;11065;50.786;7.840;2023-06-22T09:00:06;8.23;;;7.50;;
21806;SDS011;11065;50.786;7.840;2023-06-22T09:02:47;8.52;;;6.93;;
21806;SDS011;11065;50.786;7.840;2023-06-22T09:05:16;7.78;;;6.97;;
21806;SDS011;11065;50.786;7.840;2023-06-22T09:07:44;8.65;;;6.47;;
21806;SDS011;11065;50.786;7.840;2023-06-22T09:10:12;7.93;;;7.00;;
21806;SDS011;11065;50.786;7.840;2023-06-22T09:12:40;7.43;;;6.63;;
21806;SDS011;11065;50.786;7.840;2023-06-22T09:15:09;7.45;;;6.75;;
21806;SDS011;11065;50.786;7.840;2023-06-22T09:17:43;7.00;;;6.22;;
21806;SDS011;11065;50.786;7.840;2023-06-22T09:20:14;7.32;;;6.63;;
21806;SDS011;11065;50.786;7.840;2023-06-22T09:22:43;7.20;;;6.43;;
21806;SDS011;11065;50.786;7.840;2023-06-22T09:25:11;7.10;;;6.40;;
21806;SDS011;11065;50.786;7.840;2023-06-22T09:27:39;7.15;;;6.32;;
21806;SDS011;11065;50.786;7.840;2023-06-22T09:30:07;7.72;;;6.38;;
21806;SDS011;11065;50.786;7.840;2023-06-22T09:32:36;9.80;;;6.45;;
21806;SDS011;11065;50.786;7.840;2023-06-22T09:35:04;7.13;;;6.43;;
21806;SDS011;11065;50.786;7.840;2023-06-22T09:37:36;6.97;;;5.95;;
21806;SDS011;11065;50.786;7.840;2023-06-22T09:40:05;6.82;;;6.15;;
21806;SDS011;11065;50.786;7.840;2023-06-22T09:42:36;6.45;;;5.85;;
21806;SDS011;11065;50.786;7.840;2023-06-22T09:45:04;6.90;;;6.20;;
21806;SDS011;11065;50.786;7.840;2023-06-22T09:47:33;7.88;;;6.35;;
21806;SDS011;11065;50.786;7.840;2023-06-22T09:50:01;7.85;;;6.32;;
21806;SDS011;11065;50.786;7.840;2023-06-22T09:52:29;6.28;;;5.68;;
21806;SDS011;11065;50.786;7.840;2023-06-22T09:55:14;6.78;;;6.13;;
21806;SDS011;11065;50.786;7.840;2023-06-22T09:57:43;7.32;;;6.55;;
21806;SDS011;11065;50.786;7.840;2023-06-22T10:00:11;7.35;;;6.65;;
21806;SDS011;11065;50.786;7.840;2023-06-22T10:02:41;7.00;;;6.25;;
21806;SDS011;11065;50.786;7.840;2023-06-22T10:05:10;7.38;;;6.68;;
21806;SDS011;11065;50.786;7.840;2023-06-22T10:07:39;7.25;;;6.45;;
21806;SDS011;11065;50.786;7.840;2023-06-22T10:10:10;7.07;;;6.38;;
21806;SDS011;11065;50.786;7.840;2023-06-22T10:12:42;6.53;;;5.85;;
21806;SDS011;11065;50.786;7.840;2023-06-22T10:15:12;8.23;;;6.10;;
21806;SDS011;11065;50.786;7.840;2023-06-22T10:17:41;7.38;;;6.68;;
21806;SDS011;11065;50.786;7.840;2023-06-22T10:20:09;7.55;;;6.20;;
21806;SDS011;11065;50.786;7.840;2023-06-22T10:22:39;7.00;;;6.35;;
21806;SDS011;11065;50.786;7.840;2023-06-22T10:25:08;7.38;;;5.97;;
21806;SDS011;11065;50.786;7.840;2023-06-22T10:27:36;7.25;;;6.45;;
21806;SDS011;11065;50.786;7.840;2023-06-22T10:30:08;7.03;;;6.30;;
21806;SDS011;11065;50.786;7.840;2023-06-22T10:32:39;6.55;;;5.95;;
21806;SDS011;11065;50.786;7.840;2023-06-22T10:35:08;6.53;;;5.93;;
21806;SDS011;11065;50.786;7.840;2023-06-22T10:37:40;6.32;;;5.60;;
21806;SDS011;11065;50.786;7.840;2023-06-22T10:40:09;7.28;;;5.90;;
21806;SDS011;11065;50.786;7.840;2023-06-22T10:42:38;7.13;;;6.10;;
21806;SDS011;11065;50.786;7.840;2023-06-22T10:45:08;8.00;;;6.03;;
21806;SDS011;11065;50.786;7.840;2023-06-22T10:47:37;7.22;;;6.45;;
21806;SDS011;11065;50.786;7.840;2023-06-22T10:50:05;7.70;;;6.90;;
21806;SDS011;11065;50.786;7.840;2023-06-22T10:52:34;7.50;;;6.80;;
21806;SDS011;11065;50.786;7.840;2023-06-22T10:55:02;7.40;;;6.53;;
21806;SDS011;11065;50.786;7.840;2023-06-22T10:57:30;7.85;;;6.55;;
21806;SDS011;11065;50.786;7.840;2023-06-22T10:59:58;6.93;;;6.22;;
21806;SDS011;11065;50.786;7.840;2023-06-22T11:02:27;7.25;;;6.57;;
21806;SDS011;11065;50.786;7.840;2023-06-22T11:04:55;7.45;;;6.40;;
21806;SDS011;11065;50.786;7.840;2023-06-22T11:07:26;7.68;;;6.13;;
21806;SDS011;11065;50.786;7.840;2023-06-22T11:09:55;8.88;;;6.20;;
21806;SDS011;11065;50.786;7.840;2023-06-22T11:12:23;8.23;;;6.65;;
21806;SDS011;11065;50.786;7.840;2023-06-22T11:14:52;7.60;;;6.75;;
21806;SDS011;11065;50.786;7.840;2023-06-22T11:17:20;8.02;;;7.00;;
21806;SDS011;11065;50.786;7.840;2023-06-22T11:19:49;7.53;;;6.72;;
21806;SDS011;11065;50.786;7.840;2023-06-22T11:22:18;8.65;;;6.75;;
21806;SDS011;11065;50.786;7.840;2023-06-22T11:24:46;8.38;;;7.38;;
21806;SDS011;11065;50.786;7.840;2023-06-22T11:27:14;7.50;;;6.70;;
21806;SDS011;11065;50.786;7.840;2023-06-22T11:29:43;7.65;;;6.88;;
21806;SDS011;11065;50.786;7.840;2023-06-22T11:32:11;9.38;;;7.38;;
21806;SDS011;11065;50.786;7.840;2023-06-22T11:34:40;8.93;;;7.15;;
21806;SDS011;11065;50.786;7.840;2023-06-22T11:37:09;9.88;;;7.35;;
21806;SDS011;11065;50.786;7.840;2023-06-22T11:39:37;8.88;;;6.75;;
21806;SDS011;11065;50.786;7.840;2023-06-22T11:42:13;9.00;;;7.10;;
21806;SDS011;11065;50.786;7.840;2023-06-22T11:44:41;8.52;;;7.63;;
21806;SDS011;11065;50.786;7.840;2023-06-22T11:47:10;7.68;;;6.75;;
21806;SDS011;11065;50.786;7.840;2023-06-22T11:49:38;7.95;;;7.15;;
21806;SDS011;11065;50.786;7.840;2023-06-22T11:52:07;8.15;;;6.82;;
21806;SDS011;11065;50.786;7.840;2023-06-22T11:54:36;7.55;;;6.85;;
21806;SDS011;11065;50.786;7.840;2023-06-22T11:57:04;8.30;;;7.50;;
21806;SDS011;11065;50.786;7.840;2023-06-22T11:59:32;7.65;;;6.95;;
21806;SDS011;11065;50.786;7.840;2023-06-22T12:02:00;7.80;;;7.00;;
21806;SDS011;11065;50.786;7.840;2023-06-22T12:04:28;8.25;;;7.45;;
21806;SDS011;11065;50.786;7.840;2023-06-22T12:06:56;8.23;;;7.43;;
21806;SDS011;11065;50.786;7.840;2023-06-22T12:09:24;7.88;;;6.85;;
21806;SDS011;11065;50.786;7.840;2023-06-22T12:11:54;9.60;;;7.50;;
21806;SDS011;11065;50.786;7.840;2023-06-22T12:14:22;8.43;;;7.18;;
21806;SDS011;11065;50.786;7.840;2023-06-22T12:16:50;8.45;;;7.40;;
21806;SDS011;11065;50.786;7.840;2023-06-22T12:19:18;9.52;;;7.15;;
21806;SDS011;11065;50.786;7.840;2023-06-22T12:21:45;6.82;;;5.70;;
21806;SDS011;11065;50.786;7.840;2023-06-22T12:24:13;7.78;;;5.32;;
21806;SDS011;11065;50.786;7.840;2023-06-22T12:26:41;6.03;;;4.93;;
21806;SDS011;11065;50.786;7.840;2023-06-22T12:29:11;5.18;;;4.63;;
21806;SDS011;11065;50.786;7.840;2023-06-22T12:31:39;4.93;;;4.18;;
21806;SDS011;11065;50.786;7.840;2023-06-22T12:34:08;6.38;;;5.07;;
21806;SDS011;11065;50.786;7.840;2023-06-22T12:36:36;6.38;;;4.20;;
21806;SDS011;11065;50.786;7.840;2023-06-22T12:39:04;4.25;;;3.20;;
21806;SDS011;11065;50.786;7.840;2023-06-22T12:41:32;4.70;;;2.95;;
21806;SDS011;11065;50.786;7.840;2023-06-22T12:44:00;3.13;;;2.55;;
21806;SDS011;11065;50.786;7.840;2023-06-22T12:46:29;3.35;;;2.47;;
21806;SDS011;11065;50.786;7.840;2023-06-22T12:49:03;4.18;;;2.78;;
21806;SDS011;11065;50.786;7.840;2023-06-22T12:51:31;3.00;;;2.63;;
21806;SDS011;11065;50.786;7.840;2023-06-22T12:54:00;4.35;;;2.78;;
21806;SDS011;11065;50.786;7.840;2023-06-22T12:56:29;3.75;;;2.90;;
21806;SDS011;11065;50.786;7.840;2023-06-22T12:58:57;4.35;;;3.38;;
21806;SDS011;11065;50.786;7.840;2023-06-22T13:01:25;4.60;;;3.00;;
21806;SDS011;11065;50.786;7.840;2023-06-22T13:03:55;4.07;;;2.88;;
21806;SDS011;11065;50.786;7.840;2023-06-22T13:06:23;3.45;;;2.90;;
21806;SDS011;11065;50.786;7.840;2023-06-22T13:08:51;3.65;;;3.17;;
21806;SDS011;11065;50.786;7.840;2023-06-22T13:11:22;5.07;;;3.22;;
21806;SDS011;11065;50.786;7.840;2023-06-22T13:13:50;6.57;;;3.50;;
21806;SDS011;11065;50.786;7.840;2023-06-22T13:16:19;4.35;;;3.33;;
21806;SDS011;11065;50.786;7.840;2023-06-22T13:18:47;4.30;;;3.10;;
21806;SDS011;11065;50.786;7.840;2023-06-22T13:21:16;3.80;;;2.90;;
21806;SDS011;11065;50.786;7.840;2023-06-22T13:23:44;3.88;;;2.92;;
21806;SDS011;11065;50.786;7.840;2023-06-22T13:26:12;3.90;;;3.30;;
21806;SDS011;11065;50.786;7.840;2023-06-22T13:28:40;4.18;;;3.25;;
21806;SDS011;11065;50.786;7.840;2023-06-22T13:31:08;3.88;;;3.03;;
21806;SDS011;11065;50.786;7.840;2023-06-22T13:33:37;4.30;;;3.30;;
21806;SDS011;11065;50.786;7.840;2023-06-22T13:36:07;4.57;;;3.20;;
21806;SDS011;11065;50.786;7.840;2023-06-22T13:38:36;3.63;;;3.33;;
21806;SDS011;11065;50.786;7.840;2023-06-22T13:41:05;4.70;;;3.45;;
21806;SDS011;11065;50.786;7.840;2023-06-22T13:43:33;3.53;;;3.17;;
21806;SDS011;11065;50.786;7.840;2023-06-22T13:46:01;4.47;;;3.90;;
21806;SDS011;11065;50.786;7.840;2023-06-22T13:48:29;5.63;;;4.07;;
21806;SDS011;11065;50.786;7.840;2023-06-22T13:50:57;5.43;;;4.10;;
21806;SDS011;11065;50.786;7.840;2023-06-22T13:53:25;5.15;;;4.03;;
21806;SDS011;11065;50.786;7.840;2023-06-22T13:55:55;7.30;;;4.15;;
21806;SDS011;11065;50.786;7.840;2023-06-22T13:58:23;4.75;;;3.95;;
21806;SDS011;11065;50.786;7.840;2023-06-22T14:00:51;5.32;;;4.30;;
21806;SDS011;11065;50.786;7.840;2023-06-22T14:03:22;4.82;;;3.60;;
21806;SDS011;11065;50.786;7.840;2023-06-22T14:05:50;5.15;;;3.85;;
21806;SDS011;11065;50.786;7.840;2023-06-22T14:08:20;4.28;;;3.78;;
21806;SDS011;11065;50.786;7.840;2023-06-22T14:11:08;4.85;;;3.58;;
21806;SDS011;11065;50.786;7.840;2023-06-22T14:13:37;4.93;;;3.50;;
21806;SDS011;11065;50.786;7.840;2023-06-22T14:16:05;4.20;;;3.60;;
21806;SDS011;11065;50.786;7.840;2023-06-22T14:18:33;4.97;;;3.60;;
21806;SDS011;11065;50.786;7.840;2023-06-22T14:21:01;6.53;;;3.55;;
21806;SDS011;11065;50.786;7.840;2023-06-22T14:23:29;4.00;;;3.30;;
21806;SDS011;11065;50.786;7.840;2023-06-22T14:25:58;5.00;;;4.03;;
21806;SDS011;11065;50.786;7.840;2023-06-22T14:28:28;4.88;;;4.00;;
21806;SDS011;11065;50.786;7.840;2023-06-22T14:30:56;5.38;;;4.03;;
21806;SDS011;11065;50.786;7.840;2023-06-22T14:33:24;4.85;;;3.88;;
21806;SDS011;11065;50.786;7.840;2023-06-22T14:35:52;5.05;;;3.72;;
21806;SDS011;11065;50.786;7.840;2023-06-22T14:38:20;5.20;;;4.05;;
21806;SDS011;11065;50.786;7.840;2023-06-22T14:40:48;5.53;;;4.20;;
21806;SDS011;11065;50.786;7.840;2023-06-22T14:43:38;6.32;;;3.60;;
21806;SDS011;11065;50.786;7.840;2023-06-22T14:46:11;5.13;;;4.13;;
21806;SDS011;11065;50.786;7.840;2023-06-22T14:48:40;4.45;;;4.03;;
21806;SDS011;11065;50.786;7.840;2023-06-22T14:51:08;5.15;;;3.97;;